<?xml version="1.0" encoding="UTF-8" standalone="no" ?>
<gpx xmlns="http://www.topografix.com/GPX/1/1" xmlns:xsi="http://www.w3.org/2001/XMLSchema-instance" xsi:schemaLocation="http://www.topografix.com/GPX/1/1 http://www.topografix.com/GPX/1/1/gpx.xsd" version="1.1" creator="VisuGPX - https://www.visugpx.com">
  <metadata>
    <name>Pic Péric par l'arête Sud</name>
  </metadata>
  <trk>
    <name><![CDATA[Pic Péric par l'arête Sud]]></name>
    <trkseg>
      <trkpt lat="42.5594" lon="2.00011">
        <ele>2006.178</ele>
        <time>2013-10-17T06:17:03Z</time>
      </trkpt>
      <trkpt lat="42.55875" lon="2.0001">
        <ele>2008.833</ele>
        <time>2013-10-17T06:18:33Z</time>
      </trkpt>
      <trkpt lat="42.55862" lon="1.99972">
        <ele>2010.426</ele>
        <time>2013-10-17T06:19:29Z</time>
      </trkpt>
      <trkpt lat="42.55921" lon="1.99931">
        <ele>2014.507</ele>
        <time>2013-10-17T06:20:23Z</time>
      </trkpt>
      <trkpt lat="42.56037" lon="1.99804">
        <ele>2018.285</ele>
        <time>2013-10-17T06:23:35Z</time>
      </trkpt>
      <trkpt lat="42.56076" lon="1.99786">
        <ele>2016.571</ele>
        <time>2013-10-17T06:24:21Z</time>
      </trkpt>
      <trkpt lat="42.56096" lon="1.99748">
        <ele>2023.398</ele>
        <time>2013-10-17T06:25:11Z</time>
      </trkpt>
      <trkpt lat="42.5636" lon="1.99633">
        <ele>2021.282</ele>
        <time>2013-10-17T06:31:37Z</time>
      </trkpt>
      <trkpt lat="42.56441" lon="1.99531">
        <ele>2022.575</ele>
        <time>2013-10-17T06:34:29Z</time>
      </trkpt>
      <trkpt lat="42.56469" lon="1.99556">
        <ele>2019.677</ele>
        <time>2013-10-17T06:35:25Z</time>
      </trkpt>
      <trkpt lat="42.56553" lon="1.99568">
        <ele>2017.294</ele>
        <time>2013-10-17T06:37:28Z</time>
      </trkpt>
      <trkpt lat="42.56637" lon="1.99543">
        <ele>2017.381</ele>
        <time>2013-10-17T06:39:07Z</time>
      </trkpt>
      <trkpt lat="42.56687" lon="1.99469">
        <ele>2018.061</ele>
        <time>2013-10-17T06:40:34Z</time>
      </trkpt>
      <trkpt lat="42.56728" lon="1.99474">
        <ele>2017.617</ele>
        <time>2013-10-17T06:41:38Z</time>
      </trkpt>
      <trkpt lat="42.56766" lon="1.99432">
        <ele>2016.007</ele>
        <time>2013-10-17T06:42:38Z</time>
      </trkpt>
      <trkpt lat="42.56808" lon="1.99428">
        <ele>2016.236</ele>
        <time>2013-10-17T06:44:21Z</time>
      </trkpt>
      <trkpt lat="42.56855" lon="1.99452">
        <ele>2023.362</ele>
        <time>2013-10-17T06:45:30Z</time>
      </trkpt>
      <trkpt lat="42.56921" lon="1.99402">
        <ele>2016.289</ele>
        <time>2013-10-17T06:46:59Z</time>
      </trkpt>
      <trkpt lat="42.56963" lon="1.99397">
        <ele>2018.013</ele>
        <time>2013-10-17T06:48:42Z</time>
      </trkpt>
      <trkpt lat="42.56992" lon="1.99357">
        <ele>2018.076</ele>
        <time>2013-10-17T06:52:41Z</time>
      </trkpt>
      <trkpt lat="42.57056" lon="1.99309">
        <ele>2016.298</ele>
        <time>2013-10-17T06:53:58Z</time>
      </trkpt>
      <trkpt lat="42.57097" lon="1.9925">
        <ele>2018.045</ele>
        <time>2013-10-17T06:55:01Z</time>
      </trkpt>
      <trkpt lat="42.57139" lon="1.99261">
        <ele>2024.254</ele>
        <time>2013-10-17T06:55:54Z</time>
      </trkpt>
      <trkpt lat="42.57139" lon="1.99274">
        <ele>2027.156</ele>
        <time>2013-10-17T06:56:16Z</time>
      </trkpt>
      <trkpt lat="42.57218" lon="1.99332">
        <ele>2028.211</ele>
        <time>2013-10-17T06:58:07Z</time>
      </trkpt>
      <trkpt lat="42.57269" lon="1.99276">
        <ele>2032.407</ele>
        <time>2013-10-17T07:00:50Z</time>
      </trkpt>
      <trkpt lat="42.5731" lon="1.99266">
        <ele>2030.953</ele>
        <time>2013-10-17T07:02:13Z</time>
      </trkpt>
      <trkpt lat="42.57384" lon="1.99284">
        <ele>2028.169</ele>
        <time>2013-10-17T07:04:14Z</time>
      </trkpt>
      <trkpt lat="42.57483" lon="1.9936">
        <ele>2021.046</ele>
        <time>2013-10-17T07:06:53Z</time>
      </trkpt>
      <trkpt lat="42.57592" lon="1.99407">
        <ele>2019.83</ele>
        <time>2013-10-17T07:08:48Z</time>
      </trkpt>
      <trkpt lat="42.57634" lon="1.99408">
        <ele>2018.223</ele>
        <time>2013-10-17T07:09:36Z</time>
      </trkpt>
      <trkpt lat="42.57655" lon="1.99426">
        <ele>2021.565</ele>
        <time>2013-10-17T07:10:03Z</time>
      </trkpt>
      <trkpt lat="42.57691" lon="1.99385">
        <ele>2020.332</ele>
        <time>2013-10-17T07:10:55Z</time>
      </trkpt>
      <trkpt lat="42.57826" lon="1.99398">
        <ele>2024.313</ele>
        <time>2013-10-17T07:13:08Z</time>
      </trkpt>
      <trkpt lat="42.58025" lon="1.9956">
        <ele>2041.443</ele>
        <time>2013-10-17T07:21:31Z</time>
      </trkpt>
      <trkpt lat="42.58075" lon="1.99554">
        <ele>2036.007</ele>
        <time>2013-10-17T07:22:48Z</time>
      </trkpt>
      <trkpt lat="42.58108" lon="1.99518">
        <ele>2043.207</ele>
        <time>2013-10-17T07:23:52Z</time>
      </trkpt>
      <trkpt lat="42.58133" lon="1.99518">
        <ele>2043.519</ele>
        <time>2013-10-17T07:24:27Z</time>
      </trkpt>
      <trkpt lat="42.58192" lon="1.99598">
        <ele>2040.075</ele>
        <time>2013-10-17T07:28:38Z</time>
      </trkpt>
      <trkpt lat="42.58216" lon="1.99673">
        <ele>2041.322</ele>
        <time>2013-10-17T07:29:45Z</time>
      </trkpt>
      <trkpt lat="42.5823" lon="1.99833">
        <ele>2031.156</ele>
        <time>2013-10-17T07:34:09Z</time>
      </trkpt>
      <trkpt lat="42.5819" lon="1.99917">
        <ele>2025.669</ele>
        <time>2013-10-17T07:37:03Z</time>
      </trkpt>
      <trkpt lat="42.58248" lon="1.99921">
        <ele>2033.691</ele>
        <time>2013-10-17T07:38:16Z</time>
      </trkpt>
      <trkpt lat="42.58244" lon="1.99951">
        <ele>2034.778</ele>
        <time>2013-10-17T07:38:52Z</time>
      </trkpt>
      <trkpt lat="42.58297" lon="1.99921">
        <ele>2037.129</ele>
        <time>2013-10-17T07:39:46Z</time>
      </trkpt>
      <trkpt lat="42.58323" lon="1.99887">
        <ele>2042.5</ele>
        <time>2013-10-17T07:40:31Z</time>
      </trkpt>
      <trkpt lat="42.58341" lon="1.99882">
        <ele>2045.72</ele>
        <time>2013-10-17T07:40:58Z</time>
      </trkpt>
      <trkpt lat="42.58356" lon="1.99898">
        <ele>2048.007</ele>
        <time>2013-10-17T07:41:17Z</time>
      </trkpt>
      <trkpt lat="42.58439" lon="1.99839">
        <ele>2066.86</ele>
        <time>2013-10-17T07:43:48Z</time>
      </trkpt>
      <trkpt lat="42.58456" lon="1.99831">
        <ele>2071.766</ele>
        <time>2013-10-17T07:44:23Z</time>
      </trkpt>
      <trkpt lat="42.58462" lon="1.9984">
        <ele>2074.033</ele>
        <time>2013-10-17T07:44:42Z</time>
      </trkpt>
      <trkpt lat="42.58503" lon="1.99813">
        <ele>2084.957</ele>
        <time>2013-10-17T07:48:52Z</time>
      </trkpt>
      <trkpt lat="42.58578" lon="1.99704">
        <ele>2113.56</ele>
        <time>2013-10-17T07:52:45Z</time>
      </trkpt>
      <trkpt lat="42.58603" lon="1.99687">
        <ele>2119.532</ele>
        <time>2013-10-17T07:53:38Z</time>
      </trkpt>
      <trkpt lat="42.58623" lon="1.99609">
        <ele>2123.779</ele>
        <time>2013-10-17T07:56:31Z</time>
      </trkpt>
      <trkpt lat="42.58681" lon="1.99527">
        <ele>2134.754</ele>
        <time>2013-10-17T07:58:38Z</time>
      </trkpt>
      <trkpt lat="42.58694" lon="1.99532">
        <ele>2137.956</ele>
        <time>2013-10-17T07:59:13Z</time>
      </trkpt>
      <trkpt lat="42.58772" lon="1.99467">
        <ele>2157.611</ele>
        <time>2013-10-17T08:03:29Z</time>
      </trkpt>
      <trkpt lat="42.58817" lon="1.99465">
        <ele>2167.907</ele>
        <time>2013-10-17T08:04:53Z</time>
      </trkpt>
      <trkpt lat="42.5892" lon="1.99405">
        <ele>2180.773</ele>
        <time>2013-10-17T08:07:50Z</time>
      </trkpt>
      <trkpt lat="42.58934" lon="1.99307">
        <ele>2184.389</ele>
        <time>2013-10-17T08:09:32Z</time>
      </trkpt>
      <trkpt lat="42.58987" lon="1.99214">
        <ele>2186.286</ele>
        <time>2013-10-17T08:11:27Z</time>
      </trkpt>
      <trkpt lat="42.59019" lon="1.99187">
        <ele>2192.59</ele>
        <time>2013-10-17T08:12:15Z</time>
      </trkpt>
      <trkpt lat="42.59085" lon="1.99165">
        <ele>2203.833</ele>
        <time>2013-10-17T08:14:04Z</time>
      </trkpt>
      <trkpt lat="42.591" lon="1.99181">
        <ele>2204.335</ele>
        <time>2013-10-17T08:15:00Z</time>
      </trkpt>
      <trkpt lat="42.59155" lon="1.99156">
        <ele>2204.862</ele>
        <time>2013-10-17T08:15:51Z</time>
      </trkpt>
      <trkpt lat="42.59273" lon="1.99148">
        <ele>2225.059</ele>
        <time>2013-10-17T08:19:15Z</time>
      </trkpt>
      <trkpt lat="42.59294" lon="1.99125">
        <ele>2230.803</ele>
        <time>2013-10-17T08:20:18Z</time>
      </trkpt>
      <trkpt lat="42.5934" lon="1.99113">
        <ele>2242.923</ele>
        <time>2013-10-17T08:22:13Z</time>
      </trkpt>
      <trkpt lat="42.59433" lon="1.99025">
        <ele>2246.407</ele>
        <time>2013-10-17T08:24:23Z</time>
      </trkpt>
      <trkpt lat="42.59569" lon="1.98971">
        <ele>2246.513</ele>
        <time>2013-10-17T08:28:04Z</time>
      </trkpt>
      <trkpt lat="42.59592" lon="1.99035">
        <ele>2254.879</ele>
        <time>2013-10-17T08:29:59Z</time>
      </trkpt>
      <trkpt lat="42.59627" lon="1.99038">
        <ele>2253.636</ele>
        <time>2013-10-17T08:31:12Z</time>
      </trkpt>
      <trkpt lat="42.59644" lon="1.99095">
        <ele>2255.35</ele>
        <time>2013-10-17T08:32:25Z</time>
      </trkpt>
      <trkpt lat="42.59675" lon="1.9912">
        <ele>2262.763</ele>
        <time>2013-10-17T08:33:30Z</time>
      </trkpt>
      <trkpt lat="42.59712" lon="1.99125">
        <ele>2267.915</ele>
        <time>2013-10-17T08:34:30Z</time>
      </trkpt>
      <trkpt lat="42.59746" lon="1.99183">
        <ele>2274.752</ele>
        <time>2013-10-17T08:36:09Z</time>
      </trkpt>
      <trkpt lat="42.59746" lon="1.9922">
        <ele>2276.879</ele>
        <time>2013-10-17T08:36:43Z</time>
      </trkpt>
      <trkpt lat="42.59776" lon="1.99245">
        <ele>2279.605</ele>
        <time>2013-10-17T08:41:33Z</time>
      </trkpt>
      <trkpt lat="42.59767" lon="1.99248">
        <ele>2280.625</ele>
        <time>2013-10-17T08:44:02Z</time>
      </trkpt>
      <trkpt lat="42.59811" lon="1.99245">
        <ele>2283.007</ele>
        <time>2013-10-17T08:48:28Z</time>
      </trkpt>
      <trkpt lat="42.59845" lon="1.99265">
        <ele>2285.565</ele>
        <time>2013-10-17T08:49:14Z</time>
      </trkpt>
      <trkpt lat="42.5986" lon="1.99296">
        <ele>2287.621</ele>
        <time>2013-10-17T08:50:38Z</time>
      </trkpt>
      <trkpt lat="42.59931" lon="1.99271">
        <ele>2293.598</ele>
        <time>2013-10-17T08:53:21Z</time>
      </trkpt>
      <trkpt lat="42.60001" lon="1.99299">
        <ele>2312.962</ele>
        <time>2013-10-17T08:56:46Z</time>
      </trkpt>
      <trkpt lat="42.60042" lon="1.9927">
        <ele>2312.835</ele>
        <time>2013-10-17T08:57:44Z</time>
      </trkpt>
      <trkpt lat="42.60106" lon="1.99265">
        <ele>2305.857</ele>
        <time>2013-10-17T09:00:24Z</time>
      </trkpt>
      <trkpt lat="42.6014" lon="1.99279">
        <ele>2291.094</ele>
        <time>2013-10-17T09:01:28Z</time>
      </trkpt>
      <trkpt lat="42.60238" lon="1.99237">
        <ele>2294.936</ele>
        <time>2013-10-17T09:03:30Z</time>
      </trkpt>
      <trkpt lat="42.60269" lon="1.9918">
        <ele>2314.517</ele>
        <time>2013-10-17T09:06:09Z</time>
      </trkpt>
      <trkpt lat="42.60286" lon="1.99185">
        <ele>2318.218</ele>
        <time>2013-10-17T09:06:50Z</time>
      </trkpt>
      <trkpt lat="42.60337" lon="1.99162">
        <ele>2332.407</ele>
        <time>2013-10-17T09:09:14Z</time>
      </trkpt>
      <trkpt lat="42.60373" lon="1.99169">
        <ele>2343.731</ele>
        <time>2013-10-17T09:11:09Z</time>
      </trkpt>
      <trkpt lat="42.60414" lon="1.99152">
        <ele>2361.997</ele>
        <time>2013-10-17T09:14:47Z</time>
      </trkpt>
      <trkpt lat="42.60446" lon="1.99108">
        <ele>2384.994</ele>
        <time>2013-10-17T09:18:10Z</time>
      </trkpt>
      <trkpt lat="42.60488" lon="1.99102">
        <ele>2412.898</ele>
        <time>2013-10-17T09:22:09Z</time>
      </trkpt>
      <trkpt lat="42.60488" lon="1.9908">
        <ele>2425.511</ele>
        <time>2013-10-17T09:24:34Z</time>
      </trkpt>
      <trkpt lat="42.60522" lon="1.99112">
        <ele>2452.413</ele>
        <time>2013-10-17T09:31:22Z</time>
      </trkpt>
      <trkpt lat="42.60543" lon="1.99094">
        <ele>2462.75</ele>
        <time>2013-10-17T09:32:51Z</time>
      </trkpt>
      <trkpt lat="42.60601" lon="1.99106">
        <ele>2477.797</ele>
        <time>2013-10-17T09:38:41Z</time>
      </trkpt>
      <trkpt lat="42.60605" lon="1.99084">
        <ele>2472.423</ele>
        <time>2013-10-17T09:40:19Z</time>
      </trkpt>
      <trkpt lat="42.60717" lon="1.99026">
        <ele>2496.925</ele>
        <time>2013-10-17T09:43:41Z</time>
      </trkpt>
      <trkpt lat="42.6078" lon="1.98955">
        <ele>2529.607</ele>
        <time>2013-10-17T09:48:16Z</time>
      </trkpt>
      <trkpt lat="42.60829" lon="1.98928">
        <ele>2553.277</ele>
        <time>2013-10-17T09:54:44Z</time>
      </trkpt>
      <trkpt lat="42.60876" lon="1.98865">
        <ele>2585.373</ele>
        <time>2013-10-17T10:00:16Z</time>
      </trkpt>
      <trkpt lat="42.60891" lon="1.98871">
        <ele>2600.25</ele>
        <time>2013-10-17T10:05:03Z</time>
      </trkpt>
      <trkpt lat="42.60909" lon="1.98846">
        <ele>2611.544</ele>
        <time>2013-10-17T10:08:37Z</time>
      </trkpt>
      <trkpt lat="42.60954" lon="1.98829">
        <ele>2606.497</ele>
        <time>2013-10-17T10:11:51Z</time>
      </trkpt>
      <trkpt lat="42.6099" lon="1.98751">
        <ele>2627.549</ele>
        <time>2013-10-17T10:17:21Z</time>
      </trkpt>
      <trkpt lat="42.61042" lon="1.98708">
        <ele>2646.496</ele>
        <time>2013-10-17T10:31:02Z</time>
      </trkpt>
      <trkpt lat="42.61049" lon="1.9866">
        <ele>2659.037</ele>
        <time>2013-10-17T10:35:40Z</time>
      </trkpt>
      <trkpt lat="42.61116" lon="1.98562">
        <ele>2682.449</ele>
        <time>2013-10-17T10:44:52Z</time>
      </trkpt>
      <trkpt lat="42.61236" lon="1.98499">
        <ele>2728.313</ele>
        <time>2013-10-17T10:52:59Z</time>
      </trkpt>
      <trkpt lat="42.61259" lon="1.98482">
        <ele>2743.907</ele>
        <time>2013-10-17T10:55:22Z</time>
      </trkpt>
      <trkpt lat="42.61255" lon="1.98459">
        <ele>2741.581</ele>
        <time>2013-10-17T10:57:30Z</time>
      </trkpt>
      <trkpt lat="42.61276" lon="1.98449">
        <ele>2759.517</ele>
        <time>2013-10-17T11:01:33Z</time>
      </trkpt>
      <trkpt lat="42.61294" lon="1.98475">
        <ele>2773.134</ele>
        <time>2013-10-17T11:04:26Z</time>
      </trkpt>
      <trkpt lat="42.61305" lon="1.98455">
        <ele>2786.058</ele>
        <time>2013-10-17T11:06:52Z</time>
      </trkpt>
      <trkpt lat="42.61367" lon="1.98444">
        <ele>2807.531</ele>
        <time>2013-10-17T11:13:39Z</time>
      </trkpt>
      <trkpt lat="42.61365" lon="1.9843">
        <ele>2808.553</ele>
        <time>2013-10-17T11:41:11Z</time>
      </trkpt>
      <trkpt lat="42.61401" lon="1.98433">
        <ele>2806.97</ele>
        <time>2013-10-17T11:43:31Z</time>
      </trkpt>
      <trkpt lat="42.6141" lon="1.98358">
        <ele>2808.274</ele>
        <time>2013-10-17T11:44:50Z</time>
      </trkpt>
      <trkpt lat="42.614" lon="1.98336">
        <ele>2807.156</ele>
        <time>2013-10-17T11:45:50Z</time>
      </trkpt>
      <trkpt lat="42.61416" lon="1.9835">
        <ele>2809.021</ele>
        <time>2013-10-17T11:47:19Z</time>
      </trkpt>
      <trkpt lat="42.61387" lon="1.98439">
        <ele>2806.907</ele>
        <time>2013-10-17T11:49:57Z</time>
      </trkpt>
      <trkpt lat="42.61429" lon="1.98453">
        <ele>2789.915</ele>
        <time>2013-10-17T11:52:27Z</time>
      </trkpt>
      <trkpt lat="42.61426" lon="1.9852">
        <ele>2753.151</ele>
        <time>2013-10-17T11:59:17Z</time>
      </trkpt>
      <trkpt lat="42.61447" lon="1.98558">
        <ele>2731.718</ele>
        <time>2013-10-17T12:03:20Z</time>
      </trkpt>
      <trkpt lat="42.61439" lon="1.98591">
        <ele>2716.782</ele>
        <time>2013-10-17T12:04:58Z</time>
      </trkpt>
      <trkpt lat="42.61463" lon="1.98643">
        <ele>2696.925</ele>
        <time>2013-10-17T12:08:24Z</time>
      </trkpt>
      <trkpt lat="42.61475" lon="1.98785">
        <ele>2644.947</ele>
        <time>2013-10-17T12:16:46Z</time>
      </trkpt>
      <trkpt lat="42.61488" lon="1.98793">
        <ele>2646.764</ele>
        <time>2013-10-17T12:21:37Z</time>
      </trkpt>
      <trkpt lat="42.61497" lon="1.98755">
        <ele>2645.245</ele>
        <time>2013-10-17T12:25:01Z</time>
      </trkpt>
      <trkpt lat="42.61479" lon="1.9878">
        <ele>2646.047</ele>
        <time>2013-10-17T12:26:51Z</time>
      </trkpt>
      <trkpt lat="42.61389" lon="1.98811">
        <ele>2605.911</ele>
        <time>2013-10-17T12:31:58Z</time>
      </trkpt>
      <trkpt lat="42.6133" lon="1.98936">
        <ele>2561.407</ele>
        <time>2013-10-17T12:37:39Z</time>
      </trkpt>
      <trkpt lat="42.61327" lon="1.98973">
        <ele>2550.772</ele>
        <time>2013-10-17T12:38:51Z</time>
      </trkpt>
      <trkpt lat="42.61293" lon="1.98981">
        <ele>2535.268</ele>
        <time>2013-10-17T12:41:26Z</time>
      </trkpt>
      <trkpt lat="42.61275" lon="1.99038">
        <ele>2526.065</ele>
        <time>2013-10-17T12:43:08Z</time>
      </trkpt>
      <trkpt lat="42.61284" lon="1.99039">
        <ele>2525.899</ele>
        <time>2013-10-17T12:43:30Z</time>
      </trkpt>
      <trkpt lat="42.61221" lon="1.9905">
        <ele>2514.892</ele>
        <time>2013-10-17T12:47:14Z</time>
      </trkpt>
      <trkpt lat="42.61183" lon="1.99087">
        <ele>2503.114</ele>
        <time>2013-10-17T12:48:37Z</time>
      </trkpt>
      <trkpt lat="42.61174" lon="1.99122">
        <ele>2495.641</ele>
        <time>2013-10-17T12:49:40Z</time>
      </trkpt>
      <trkpt lat="42.61104" lon="1.99185">
        <ele>2479.367</ele>
        <time>2013-10-17T12:51:47Z</time>
      </trkpt>
      <trkpt lat="42.60925" lon="1.9927">
        <ele>2436.981</ele>
        <time>2013-10-17T12:57:29Z</time>
      </trkpt>
      <trkpt lat="42.60846" lon="1.99387">
        <ele>2416.119</ele>
        <time>2013-10-17T13:01:19Z</time>
      </trkpt>
      <trkpt lat="42.60794" lon="1.99501">
        <ele>2403.507</ele>
        <time>2013-10-17T13:06:04Z</time>
      </trkpt>
      <trkpt lat="42.60783" lon="1.99575">
        <ele>2402.834</ele>
        <time>2013-10-17T13:07:17Z</time>
      </trkpt>
      <trkpt lat="42.608" lon="1.99621">
        <ele>2402.69</ele>
        <time>2013-10-17T13:07:55Z</time>
      </trkpt>
      <trkpt lat="42.60802" lon="1.99685">
        <ele>2399.887</ele>
        <time>2013-10-17T13:09:18Z</time>
      </trkpt>
      <trkpt lat="42.60762" lon="1.99909">
        <ele>2391.171</ele>
        <time>2013-10-17T13:12:57Z</time>
      </trkpt>
      <trkpt lat="42.60803" lon="1.99978">
        <ele>2387.384</ele>
        <time>2013-10-17T13:14:20Z</time>
      </trkpt>
      <trkpt lat="42.60793" lon="1.99958">
        <ele>2388.056</ele>
        <time>2013-10-17T13:15:02Z</time>
      </trkpt>
      <trkpt lat="42.60748" lon="1.99955">
        <ele>2382.753</ele>
        <time>2013-10-17T13:16:44Z</time>
      </trkpt>
      <trkpt lat="42.60707" lon="1.99983">
        <ele>2375.878</ele>
        <time>2013-10-17T13:17:50Z</time>
      </trkpt>
      <trkpt lat="42.60664" lon="1.99986">
        <ele>2366.033</ele>
        <time>2013-10-17T13:19:39Z</time>
      </trkpt>
      <trkpt lat="42.60577" lon="2.0005">
        <ele>2327.926</ele>
        <time>2013-10-17T13:23:33Z</time>
      </trkpt>
      <trkpt lat="42.60548" lon="2.0014">
        <ele>2323.507</ele>
        <time>2013-10-17T13:31:55Z</time>
      </trkpt>
      <trkpt lat="42.60475" lon="2.00128">
        <ele>2325.215</ele>
        <time>2013-10-17T13:33:35Z</time>
      </trkpt>
      <trkpt lat="42.60457" lon="2.0017">
        <ele>2318.151</ele>
        <time>2013-10-17T13:34:55Z</time>
      </trkpt>
      <trkpt lat="42.60412" lon="2.00173">
        <ele>2310.098</ele>
        <time>2013-10-17T13:37:02Z</time>
      </trkpt>
      <trkpt lat="42.60386" lon="2.0019">
        <ele>2305.652</ele>
        <time>2013-10-17T13:38:47Z</time>
      </trkpt>
      <trkpt lat="42.60347" lon="2.00261">
        <ele>2301.935</ele>
        <time>2013-10-17T13:39:50Z</time>
      </trkpt>
      <trkpt lat="42.60329" lon="2.00446">
        <ele>2273.837</ele>
        <time>2013-10-17T13:42:40Z</time>
      </trkpt>
      <trkpt lat="42.60228" lon="2.00537">
        <ele>2256.074</ele>
        <time>2013-10-17T13:53:15Z</time>
      </trkpt>
      <trkpt lat="42.602" lon="2.00542">
        <ele>2255.554</ele>
        <time>2013-10-17T13:53:54Z</time>
      </trkpt>
      <trkpt lat="42.60151" lon="2.00599">
        <ele>2250.356</ele>
        <time>2013-10-17T13:55:16Z</time>
      </trkpt>
      <trkpt lat="42.59985" lon="2.00695">
        <ele>2251.411</ele>
        <time>2013-10-17T13:58:01Z</time>
      </trkpt>
      <trkpt lat="42.59946" lon="2.00694">
        <ele>2249.707</ele>
        <time>2013-10-17T13:58:32Z</time>
      </trkpt>
      <trkpt lat="42.59932" lon="2.00678">
        <ele>2248.873</ele>
        <time>2013-10-17T14:00:28Z</time>
      </trkpt>
      <trkpt lat="42.59848" lon="2.00656">
        <ele>2242.899</ele>
        <time>2013-10-17T14:01:42Z</time>
      </trkpt>
      <trkpt lat="42.59632" lon="2.00625">
        <ele>2217.366</ele>
        <time>2013-10-17T14:05:32Z</time>
      </trkpt>
      <trkpt lat="42.59572" lon="2.00584">
        <ele>2210.51</ele>
        <time>2013-10-17T14:06:35Z</time>
      </trkpt>
      <trkpt lat="42.59495" lon="2.00473">
        <ele>2205.033</ele>
        <time>2013-10-17T14:09:10Z</time>
      </trkpt>
      <trkpt lat="42.59451" lon="2.00455">
        <ele>2204.585</ele>
        <time>2013-10-17T14:11:40Z</time>
      </trkpt>
      <trkpt lat="42.59432" lon="2.00429">
        <ele>2202.262</ele>
        <time>2013-10-17T14:12:10Z</time>
      </trkpt>
      <trkpt lat="42.59443" lon="2.00317">
        <ele>2205.484</ele>
        <time>2013-10-17T14:13:36Z</time>
      </trkpt>
      <trkpt lat="42.59432" lon="2.00283">
        <ele>2204.707</ele>
        <time>2013-10-17T14:14:04Z</time>
      </trkpt>
      <trkpt lat="42.59407" lon="2.00271">
        <ele>2209.917</ele>
        <time>2013-10-17T14:14:52Z</time>
      </trkpt>
      <trkpt lat="42.59383" lon="2.00231">
        <ele>2213.807</ele>
        <time>2013-10-17T14:15:34Z</time>
      </trkpt>
      <trkpt lat="42.59382" lon="2.00168">
        <ele>2220.726</ele>
        <time>2013-10-17T14:16:44Z</time>
      </trkpt>
      <trkpt lat="42.59338" lon="2.0004">
        <ele>2216.262</ele>
        <time>2013-10-17T14:18:31Z</time>
      </trkpt>
      <trkpt lat="42.59349" lon="1.9998">
        <ele>2221.549</ele>
        <time>2013-10-17T14:19:30Z</time>
      </trkpt>
      <trkpt lat="42.59322" lon="1.99947">
        <ele>2220.263</ele>
        <time>2013-10-17T14:20:42Z</time>
      </trkpt>
      <trkpt lat="42.59313" lon="1.99898">
        <ele>2225.146</ele>
        <time>2013-10-17T14:22:54Z</time>
      </trkpt>
      <trkpt lat="42.59287" lon="1.99863">
        <ele>2223.128</ele>
        <time>2013-10-17T14:23:36Z</time>
      </trkpt>
      <trkpt lat="42.59153" lon="1.99782">
        <ele>2204.425</ele>
        <time>2013-10-17T14:27:36Z</time>
      </trkpt>
      <trkpt lat="42.59163" lon="1.99749">
        <ele>2196.358</ele>
        <time>2013-10-17T14:29:11Z</time>
      </trkpt>
      <trkpt lat="42.59087" lon="1.99557">
        <ele>2190.352</ele>
        <time>2013-10-17T14:31:59Z</time>
      </trkpt>
      <trkpt lat="42.58944" lon="1.99505">
        <ele>2196.017</ele>
        <time>2013-10-17T14:34:52Z</time>
      </trkpt>
      <trkpt lat="42.58917" lon="1.9944">
        <ele>2199.807</ele>
        <time>2013-10-17T14:36:00Z</time>
      </trkpt>
      <trkpt lat="42.58927" lon="1.99365">
        <ele>2205.613</ele>
        <time>2013-10-17T14:37:04Z</time>
      </trkpt>
      <trkpt lat="42.58907" lon="1.99431">
        <ele>2197.799</ele>
        <time>2013-10-17T14:39:23Z</time>
      </trkpt>
      <trkpt lat="42.58828" lon="1.99476">
        <ele>2187.726</ele>
        <time>2013-10-17T14:42:19Z</time>
      </trkpt>
      <trkpt lat="42.58773" lon="1.99474">
        <ele>2176.94</ele>
        <time>2013-10-17T14:43:27Z</time>
      </trkpt>
      <trkpt lat="42.58696" lon="1.99526">
        <ele>2154.233</ele>
        <time>2013-10-17T14:46:13Z</time>
      </trkpt>
      <trkpt lat="42.58631" lon="1.99605">
        <ele>2141.535</ele>
        <time>2013-10-17T14:47:34Z</time>
      </trkpt>
      <trkpt lat="42.58606" lon="1.99674">
        <ele>2136.942</ele>
        <time>2013-10-17T14:48:25Z</time>
      </trkpt>
      <trkpt lat="42.58502" lon="1.9982">
        <ele>2101.394</ele>
        <time>2013-10-17T14:51:59Z</time>
      </trkpt>
      <trkpt lat="42.58215" lon="1.99931">
        <ele>2042.657</ele>
        <time>2013-10-17T14:58:12Z</time>
      </trkpt>
      <trkpt lat="42.58198" lon="1.99919">
        <ele>2041.322</ele>
        <time>2013-10-17T14:58:47Z</time>
      </trkpt>
      <trkpt lat="42.58195" lon="1.99894">
        <ele>2041.207</ele>
        <time>2013-10-17T14:59:22Z</time>
      </trkpt>
      <trkpt lat="42.58217" lon="1.99826">
        <ele>2046.447</ele>
        <time>2013-10-17T15:00:37Z</time>
      </trkpt>
      <trkpt lat="42.58223" lon="1.99689">
        <ele>2054.263</ele>
        <time>2013-10-17T15:03:06Z</time>
      </trkpt>
      <trkpt lat="42.58172" lon="1.99542">
        <ele>2057.67</ele>
        <time>2013-10-17T15:06:34Z</time>
      </trkpt>
      <trkpt lat="42.58129" lon="1.99522">
        <ele>2058.574</ele>
        <time>2013-10-17T15:07:33Z</time>
      </trkpt>
      <trkpt lat="42.5808" lon="1.99556">
        <ele>2050.597</ele>
        <time>2013-10-17T15:09:02Z</time>
      </trkpt>
      <trkpt lat="42.58024" lon="1.99562">
        <ele>2056.849</ele>
        <time>2013-10-17T15:10:26Z</time>
      </trkpt>
      <trkpt lat="42.57937" lon="1.99513">
        <ele>2055.716</ele>
        <time>2013-10-17T15:12:02Z</time>
      </trkpt>
      <trkpt lat="42.57919" lon="1.99471">
        <ele>2047.018</ele>
        <time>2013-10-17T15:13:11Z</time>
      </trkpt>
      <trkpt lat="42.57848" lon="1.99409">
        <ele>2043.298</ele>
        <time>2013-10-17T15:14:32Z</time>
      </trkpt>
      <trkpt lat="42.57763" lon="1.99383">
        <ele>2037.417</ele>
        <time>2013-10-17T15:16:02Z</time>
      </trkpt>
      <trkpt lat="42.57689" lon="1.99392">
        <ele>2034.307</ele>
        <time>2013-10-17T15:17:16Z</time>
      </trkpt>
      <trkpt lat="42.57656" lon="1.99418">
        <ele>2036.229</ele>
        <time>2013-10-17T15:18:08Z</time>
      </trkpt>
      <trkpt lat="42.57603" lon="1.99412">
        <ele>2033.895</ele>
        <time>2013-10-17T15:19:09Z</time>
      </trkpt>
      <trkpt lat="42.57485" lon="1.99359">
        <ele>2034.482</ele>
        <time>2013-10-17T15:21:16Z</time>
      </trkpt>
      <trkpt lat="42.574" lon="1.99293">
        <ele>2041.526</ele>
        <time>2013-10-17T15:23:28Z</time>
      </trkpt>
      <trkpt lat="42.57299" lon="1.99268">
        <ele>2045.549</ele>
        <time>2013-10-17T15:25:29Z</time>
      </trkpt>
      <trkpt lat="42.57254" lon="1.99286">
        <ele>2046.921</ele>
        <time>2013-10-17T15:26:56Z</time>
      </trkpt>
      <trkpt lat="42.5723" lon="1.99321">
        <ele>2044.518</ele>
        <time>2013-10-17T15:28:11Z</time>
      </trkpt>
      <trkpt lat="42.57203" lon="1.99325">
        <ele>2042.198</ele>
        <time>2013-10-17T15:28:53Z</time>
      </trkpt>
      <trkpt lat="42.57169" lon="1.99281">
        <ele>2042.015</ele>
        <time>2013-10-17T15:30:03Z</time>
      </trkpt>
      <trkpt lat="42.57109" lon="1.99251">
        <ele>2034.026</ele>
        <time>2013-10-17T15:31:31Z</time>
      </trkpt>
      <trkpt lat="42.56948" lon="1.99405">
        <ele>2032.307</ele>
        <time>2013-10-17T15:35:06Z</time>
      </trkpt>
      <trkpt lat="42.56852" lon="1.99451">
        <ele>2037.587</ele>
        <time>2013-10-17T15:37:30Z</time>
      </trkpt>
      <trkpt lat="42.56801" lon="1.99426">
        <ele>2031.073</ele>
        <time>2013-10-17T15:38:44Z</time>
      </trkpt>
      <trkpt lat="42.56772" lon="1.99429">
        <ele>2031.06</ele>
        <time>2013-10-17T15:39:23Z</time>
      </trkpt>
      <trkpt lat="42.56716" lon="1.99475">
        <ele>2031.354</ele>
        <time>2013-10-17T15:40:59Z</time>
      </trkpt>
      <trkpt lat="42.56682" lon="1.99473">
        <ele>2032.277</ele>
        <time>2013-10-17T15:42:06Z</time>
      </trkpt>
      <trkpt lat="42.56644" lon="1.99541">
        <ele>2031.579</ele>
        <time>2013-10-17T15:43:23Z</time>
      </trkpt>
      <trkpt lat="42.5661" lon="1.99558">
        <ele>2033.026</ele>
        <time>2013-10-17T15:44:06Z</time>
      </trkpt>
      <trkpt lat="42.56472" lon="1.99558">
        <ele>2032.319</ele>
        <time>2013-10-17T15:47:02Z</time>
      </trkpt>
      <trkpt lat="42.56433" lon="1.99528">
        <ele>2034.809</ele>
        <time>2013-10-17T15:48:33Z</time>
      </trkpt>
      <trkpt lat="42.56354" lon="1.99633">
        <ele>2034.519</ele>
        <time>2013-10-17T15:51:38Z</time>
      </trkpt>
      <trkpt lat="42.56242" lon="1.99694">
        <ele>2030.807</ele>
        <time>2013-10-17T15:54:07Z</time>
      </trkpt>
      <trkpt lat="42.56214" lon="1.99689">
        <ele>2035.279</ele>
        <time>2013-10-17T15:54:55Z</time>
      </trkpt>
      <trkpt lat="42.56046" lon="1.998">
        <ele>2030.895</ele>
        <time>2013-10-17T15:58:48Z</time>
      </trkpt>
      <trkpt lat="42.5597" lon="1.99893">
        <ele>2030.772</ele>
        <time>2013-10-17T16:00:52Z</time>
      </trkpt>
      <trkpt lat="42.55969" lon="1.99944">
        <ele>2025.536</ele>
        <time>2013-10-17T16:01:35Z</time>
      </trkpt>
      <trkpt lat="42.55948" lon="1.99969">
        <ele>2025.039</ele>
        <time>2013-10-17T16:02:00Z</time>
      </trkpt>
      <trkpt lat="42.5594" lon="2.00012">
        <ele>2017.341</ele>
        <time>2013-10-17T16:05:23Z</time>
      </trkpt>
    </trkseg>
  </trk>
</gpx>